sensor_id;sensor_type;location;lat;lon;timestamp;pressure;altitude;pressure_sealevel;temperature;humidity
5053;BME280;2545;50.892;5.740;2023-01-30T00:01:33;56461.13;;;-142.21;100.00
5053;BME280;2545;50.892;5.740;2023-01-30T00:04:00;56410.16;;;-142.21;100.00
5053;BME280;2545;50.892;5.740;2023-01-30T00:06:26;56425.84;;;-142.21;100.00
5053;BME280;2545;50.892;5.740;2023-01-30T00:08:51;56414.06;;;-142.21;100.00
5053;BME280;2545;50.892;5.740;2023-01-30T00:11:17;56431.72;;;-142.21;100.00
5053;BME280;2545;50.892;5.740;2023-01-30T00:13:47;56384.66;;;-142.21;100.00
5053;BME280;2545;50.892;5.740;2023-01-30T00:16:14;56419.97;;;-142.21;100.00
5053;BME280;2545;50.892;5.740;2023-01-30T00:18:40;56431.72;;;-142.21;100.00
5053;BME280;2545;50.892;5.740;2023-01-30T00:21:08;56402.31;;;-142.21;100.00
5053;BME280;2545;50.892;5.740;2023-01-30T00:23:34;56423.88;;;-142.21;100.00
5053;BME280;2545;50.892;5.740;2023-01-30T00:26:00;56402.31;;;-142.21;100.00
5053;BME280;2545;50.892;5.740;2023-01-30T00:28:26;56402.31;;;-142.21;100.00
5053;BME280;2545;50.892;5.740;2023-01-30T00:30:53;56412.13;;;-142.21;100.00
5053;BME280;2545;50.892;5.740;2023-01-30T00:33:20;56421.91;;;-142.21;100.00
5053;BME280;2545;50.892;5.740;2023-01-30T00:35:46;56425.84;;;-142.21;100.00
5053;BME280;2545;50.892;5.740;2023-01-30T00:38:13;56416.03;;;-142.21;100.00
5053;BME280;2545;50.892;5.740;2023-01-30T00:40:38;56406.22;;;-142.21;100.00
5053;BME280;2545;50.892;5.740;2023-01-30T00:43:04;56445.44;;;-142.21;100.00
5053;BME280;2545;50.892;5.740;2023-01-30T00:45:51;56453.28;;;-142.21;100.00
5053;BME280;2545;50.892;5.740;2023-01-30T00:48:36;56412.13;;;-142.21;100.00
5053;BME280;2545;50.892;5.740;2023-01-30T00:51:02;56414.06;;;-142.21;100.00
5053;BME280;2545;50.892;5.740;2023-01-30T00:53:27;56408.19;;;-142.21;100.00
5053;BME280;2545;50.892;5.740;2023-01-30T00:55:53;56416.03;;;-142.21;100.00
5053;BME280;2545;50.892;5.740;2023-01-30T00:58:20;56453.28;;;-142.21;100.00
5053;BME280;2545;50.892;5.740;2023-01-30T01:00:46;56441.53;;;-142.21;100.00
5053;BME280;2545;50.892;5.740;2023-01-30T01:03:11;56453.28;;;-142.21;100.00
5053;BME280;2545;50.892;5.740;2023-01-30T01:05:36;56437.59;;;-142.21;100.00
5053;BME280;2545;50.892;5.740;2023-01-30T01:08:02;56394.47;;;-142.21;100.00
5053;BME280;2545;50.892;5.740;2023-01-30T01:10:27;56406.22;;;-142.21;100.00
5053;BME280;2545;50.892;5.740;2023-01-30T01:12:52;56418.00;;;-142.21;100.00
5053;BME280;2545;50.892;5.740;2023-01-30T01:15:19;56406.22;;;-142.21;100.00
5053;BME280;2545;50.892;5.740;2023-01-30T01:17:45;56427.81;;;-142.21;100.00
5053;BME280;2545;50.892;5.740;2023-01-30T01:20:11;56384.66;;;-142.21;100.00
5053;BME280;2545;50.892;5.740;2023-01-30T01:22:37;56388.59;;;-142.21;100.00
5053;BME280;2545;50.892;5.740;2023-01-30T01:25:02;56431.72;;;-142.21;100.00
5053;BME280;2545;50.892;5.740;2023-01-30T01:27:28;56435.66;;;-142.21;100.00
5053;BME280;2545;50.892;5.740;2023-01-30T01:29:53;56416.03;;;-142.21;100.00
5053;BME280;2545;50.892;5.740;2023-01-30T01:32:20;56445.44;;;-142.21;100.00
5053;BME280;2545;50.892;5.740;2023-01-30T01:34:45;56418.00;;;-142.21;100.00
5053;BME280;2545;50.892;5.740;2023-01-30T01:37:11;56416.03;;;-142.21;100.00
5053;BME280;2545;50.892;5.740;2023-01-30T01:39:37;56398.38;;;-142.21;100.00
5053;BME280;2545;50.892;5.740;2023-01-30T01:42:26;56396.44;;;-142.21;100.00
5053;BME280;2545;50.892;5.740;2023-01-30T01:50:17;56433.69;;;-142.21;100.00
5053;BME280;2545;50.892;5.740;2023-01-30T01:52:43;56429.75;;;-142.21;100.00
5053;BME280;2545;50.892;5.740;2023-01-30T01:55:10;56402.31;;;-142.21;100.00
5053;BME280;2545;50.892;5.740;2023-01-30T01:57:42;56402.31;;;-142.21;100.00
5053;BME280;2545;50.892;5.740;2023-01-30T02:00:15;56392.50;;;-142.21;100.00
5053;BME280;2545;50.892;5.740;2023-01-30T02:02:44;56445.44;;;-142.21;100.00
5053;BME280;2545;50.892;5.740;2023-01-30T02:05:11;56402.31;;;-142.21;100.00
5053;BME280;2545;50.892;5.740;2023-01-30T02:12:59;56425.84;;;-142.21;100.00
5053;BME280;2545;50.892;5.740;2023-01-30T02:15:25;56431.72;;;-142.21;100.00
5053;BME280;2545;50.892;5.740;2023-01-30T02:17:50;56467.03;;;-142.21;100.00
5053;BME280;2545;50.892;5.740;2023-01-30T02:28:51;56463.09;;;-142.21;100.00
5053;BME280;2545;50.892;5.740;2023-01-30T02:45:01;56414.06;;;-142.21;100.00
5053;BME280;2545;50.892;5.740;2023-01-30T02:47:35;56419.97;;;-142.21;100.00
5053;BME280;2545;50.892;5.740;2023-01-30T02:50:34;56435.66;;;-142.21;100.00
5053;BME280;2545;50.892;5.740;2023-01-30T02:53:03;56421.91;;;-142.21;100.00
5053;BME280;2545;50.892;5.740;2023-01-30T02:55:28;56396.44;;;-142.21;100.00
5053;BME280;2545;50.892;5.740;2023-01-30T02:57:54;56394.47;;;-142.21;100.00
5053;BME280;2545;50.892;5.740;2023-01-30T03:00:25;56398.38;;;-142.21;100.00
5053;BME280;2545;50.892;5.740;2023-01-30T03:06:02;56431.72;;;-142.21;100.00
5053;BME280;2545;50.892;5.740;2023-01-30T03:09:17;56461.13;;;-142.21;100.00
5053;BME280;2545;50.892;5.740;2023-01-30T03:12:07;56455.25;;;-142.21;100.00
5053;BME280;2545;50.892;5.740;2023-01-30T03:14:51;56429.75;;;-142.21;100.00
5053;BME280;2545;50.892;5.740;2023-01-30T03:17:22;56451.34;;;-142.21;100.00
5053;BME280;2545;50.892;5.740;2023-01-30T03:19:49;56423.88;;;-142.21;100.00
5053;BME280;2545;50.892;5.740;2023-01-30T03:22:15;56443.50;;;-142.21;100.00
5053;BME280;2545;50.892;5.740;2023-01-30T03:24:40;56414.06;;;-142.21;100.00
5053;BME280;2545;50.892;5.740;2023-01-30T03:27:10;56418.00;;;-142.21;100.00
5053;BME280;2545;50.892;5.740;2023-01-30T03:29:36;56449.38;;;-142.21;100.00
5053;BME280;2545;50.892;5.740;2023-01-30T03:32:02;56435.66;;;-142.21;100.00
5053;BME280;2545;50.892;5.740;2023-01-30T03:34:27;56402.31;;;-142.21;100.00
5053;BME280;2545;50.892;5.740;2023-01-30T03:36:53;56408.19;;;-142.21;100.00
5053;BME280;2545;50.892;5.740;2023-01-30T03:39:18;56427.81;;;-142.21;100.00
5053;BME280;2545;50.892;5.740;2023-01-30T03:41:44;56412.13;;;-142.21;100.00
5053;BME280;2545;50.892;5.740;2023-01-30T03:44:09;56402.31;;;-142.21;100.00
5053;BME280;2545;50.892;5.740;2023-01-30T03:46:35;56402.31;;;-142.21;100.00
5053;BME280;2545;50.892;5.740;2023-01-30T03:49:00;56451.34;;;-142.21;100.00
5053;BME280;2545;50.892;5.740;2023-01-30T03:51:25;56457.22;;;-142.21;100.00
5053;BME280;2545;50.892;5.740;2023-01-30T03:53:51;56408.19;;;-142.21;100.00
5053;BME280;2545;50.892;5.740;2023-01-30T03:56:16;56423.88;;;-142.21;100.00
5053;BME280;2545;50.892;5.740;2023-01-30T03:58:41;56433.69;;;-142.21;100.00
5053;BME280;2545;50.892;5.740;2023-01-30T04:01:07;56435.66;;;-142.21;100.00
5053;BME280;2545;50.892;5.740;2023-01-30T04:03:32;56398.38;;;-142.21;100.00
5053;BME280;2545;50.892;5.740;2023-01-30T04:05:58;56404.28;;;-142.21;100.00
5053;BME280;2545;50.892;5.740;2023-01-30T04:08:23;56429.75;;;-142.21;100.00
5053;BME280;2545;50.892;5.740;2023-01-30T04:10:48;56414.06;;;-142.21;100.00
5053;BME280;2545;50.892;5.740;2023-01-30T04:13:14;56429.75;;;-142.21;100.00
5053;BME280;2545;50.892;5.740;2023-01-30T04:15:39;56423.88;;;-142.21;100.00
5053;BME280;2545;50.892;5.740;2023-01-30T04:18:04;56441.53;;;-142.21;100.00
5053;BME280;2545;50.892;5.740;2023-01-30T04:20:30;56414.06;;;-142.21;100.00
5053;BME280;2545;50.892;5.740;2023-01-30T04:22:55;56437.59;;;-142.21;100.00
5053;BME280;2545;50.892;5.740;2023-01-30T04:25:21;56419.97;;;-142.21;100.00
5053;BME280;2545;50.892;5.740;2023-01-30T04:27:46;56455.25;;;-142.21;100.00
5053;BME280;2545;50.892;5.740;2023-01-30T04:30:11;56441.53;;;-142.21;100.00
5053;BME280;2545;50.892;5.740;2023-01-30T04:32:36;56421.91;;;-142.21;100.00
5053;BME280;2545;50.892;5.740;2023-01-30T04:35:02;56447.41;;;-142.21;100.00
5053;BME280;2545;50.892;5.740;2023-01-30T04:37:27;56414.06;;;-142.21;100.00
5053;BME280;2545;50.892;5.740;2023-01-30T04:39:53;56447.41;;;-142.21;100.00
5053;BME280;2545;50.892;5.740;2023-01-30T04:42:18;56443.50;;;-142.21;100.00
5053;BME280;2545;50.892;5.740;2023-01-30T04:44:43;56427.81;;;-142.21;100.00
5053;BME280;2545;50.892;5.740;2023-01-30T04:47:09;56459.19;;;-142.21;100.00
5053;BME280;2545;50.892;5.740;2023-01-30T04:49:34;56412.13;;;-142.21;100.00
5053;BME280;2545;50.892;5.740;2023-01-30T04:51:59;56421.91;;;-142.21;100.00
5053;BME280;2545;50.892;5.740;2023-01-30T04:54:25;56429.75;;;-142.21;100.00
5053;BME280;2545;50.892;5.740;2023-01-30T04:56:51;56451.34;;;-142.21;100.00
5053;BME280;2545;50.892;5.740;2023-01-30T04:59:16;56476.81;;;-142.21;100.00
5053;BME280;2545;50.892;5.740;2023-01-30T05:01:41;56457.22;;;-142.21;100.00
5053;BME280;2545;50.892;5.740;2023-01-30T05:04:07;56445.44;;;-142.21;100.00
5053;BME280;2545;50.892;5.740;2023-01-30T05:06:34;56447.41;;;-142.21;100.00
5053;BME280;2545;50.892;5.740;2023-01-30T05:08:59;56447.41;;;-142.21;100.00
5053;BME280;2545;50.892;5.740;2023-01-30T05:11:26;56443.50;;;-142.21;100.00
5053;BME280;2545;50.892;5.740;2023-01-30T05:13:52;56425.84;;;-142.21;100.00
5053;BME280;2545;50.892;5.740;2023-01-30T05:16:18;56468.97;;;-142.21;100.00
5053;BME280;2545;50.892;5.740;2023-01-30T05:18:45;56414.06;;;-142.21;100.00
5053;BME280;2545;50.892;5.740;2023-01-30T05:21:15;56480.75;;;-142.21;100.00
5053;BME280;2545;50.892;5.740;2023-01-30T05:23:41;56429.75;;;-142.21;100.00
5053;BME280;2545;50.892;5.740;2023-01-30T05:26:07;56435.66;;;-142.21;100.00
5053;BME280;2545;50.892;5.740;2023-01-30T05:28:34;56455.25;;;-142.21;100.00
5053;BME280;2545;50.892;5.740;2023-01-30T05:31:25;56457.22;;;-142.21;100.00
5053;BME280;2545;50.892;5.740;2023-01-30T05:33:51;56425.84;;;-142.21;100.00
5053;BME280;2545;50.892;5.740;2023-01-30T05:36:18;56459.19;;;-142.21;100.00
5053;BME280;2545;50.892;5.740;2023-01-30T05:38:44;56468.97;;;-142.21;100.00
5053;BME280;2545;50.892;5.740;2023-01-30T05:41:11;56463.09;;;-142.21;100.00
5053;BME280;2545;50.892;5.740;2023-01-30T05:43:37;56412.13;;;-142.21;100.00
5053;BME280;2545;50.892;5.740;2023-01-30T05:46:03;56382.69;;;-142.21;100.00
5053;BME280;2545;50.892;5.740;2023-01-30T05:48:29;56449.38;;;-142.21;100.00
5053;BME280;2545;50.892;5.740;2023-01-30T05:50:56;56445.44;;;-142.21;100.00
5053;BME280;2545;50.892;5.740;2023-01-30T05:53:24;56429.75;;;-142.21;100.00
5053;BME280;2545;50.892;5.740;2023-01-30T05:55:58;56455.25;;;-142.21;100.00
5053;BME280;2545;50.892;5.740;2023-01-30T05:58:23;56459.19;;;-142.21;100.00
5053;BME280;2545;50.892;5.740;2023-01-30T06:00:49;56433.69;;;-142.21;100.00
5053;BME280;2545;50.892;5.740;2023-01-30T06:03:15;56472.91;;;-142.21;100.00
5053;BME280;2545;50.892;5.740;2023-01-30T06:05:40;56461.13;;;-142.21;100.00
5053;BME280;2545;50.892;5.740;2023-01-30T06:08:06;56437.59;;;-142.21;100.00
5053;BME280;2545;50.892;5.740;2023-01-30T06:10:32;56445.44;;;-142.21;100.00
5053;BME280;2545;50.892;5.740;2023-01-30T06:12:57;56419.97;;;-142.21;100.00
5053;BME280;2545;50.892;5.740;2023-01-30T06:15:23;56439.56;;;-142.21;100.00
5053;BME280;2545;50.892;5.740;2023-01-30T06:17:48;56443.50;;;-142.21;100.00
5053;BME280;2545;50.892;5.740;2023-01-30T06:20:13;56441.53;;;-142.21;100.00
5053;BME280;2545;50.892;5.740;2023-01-30T06:22:39;56447.41;;;-142.21;100.00
5053;BME280;2545;50.892;5.740;2023-01-30T06:25:04;56461.13;;;-142.21;100.00
5053;BME280;2545;50.892;5.740;2023-01-30T06:27:30;56492.53;;;-142.21;100.00
5053;BME280;2545;50.892;5.740;2023-01-30T06:29:55;56398.38;;;-142.21;100.00
5053;BME280;2545;50.892;5.740;2023-01-30T06:32:21;56478.78;;;-142.21;100.00
5053;BME280;2545;50.892;5.740;2023-01-30T06:34:46;56494.47;;;-142.21;100.00
5053;BME280;2545;50.892;5.740;2023-01-30T06:37:11;56421.91;;;-142.21;100.00
5053;BME280;2545;50.892;5.740;2023-01-30T06:39:36;56437.59;;;-142.21;100.00
5053;BME280;2545;50.892;5.740;2023-01-30T06:42:02;56443.50;;;-142.21;100.00
5053;BME280;2545;50.892;5.740;2023-01-30T06:44:27;56443.50;;;-142.21;100.00
5053;BME280;2545;50.892;5.740;2023-01-30T06:46:52;56447.41;;;-142.21;100.00
5053;BME280;2545;50.892;5.740;2023-01-30T06:49:18;56427.81;;;-142.21;100.00
5053;BME280;2545;50.892;5.740;2023-01-30T06:51:43;56427.81;;;-142.21;100.00
5053;BME280;2545;50.892;5.740;2023-01-30T06:54:08;56431.72;;;-142.21;100.00
5053;BME280;2545;50.892;5.740;2023-01-30T06:56:34;56439.56;;;-142.21;100.00
5053;BME280;2545;50.892;5.740;2023-01-30T06:58:59;56429.75;;;-142.21;100.00
5053;BME280;2545;50.892;5.740;2023-01-30T07:01:24;56416.03;;;-142.21;100.00
5053;BME280;2545;50.892;5.740;2023-01-30T07:03:49;56476.81;;;-142.21;100.00
5053;BME280;2545;50.892;5.740;2023-01-30T07:06:15;56429.75;;;-142.21;100.00
5053;BME280;2545;50.892;5.740;2023-01-30T07:08:40;56451.34;;;-142.21;100.00
5053;BME280;2545;50.892;5.740;2023-01-30T07:11:06;56459.19;;;-142.21;100.00
5053;BME280;2545;50.892;5.740;2023-01-30T07:13:31;56443.50;;;-142.21;100.00
5053;BME280;2545;50.892;5.740;2023-01-30T07:15:57;56472.91;;;-142.21;100.00
5053;BME280;2545;50.892;5.740;2023-01-30T07:18:22;56425.84;;;-142.21;100.00
5053;BME280;2545;50.892;5.740;2023-01-30T07:20:47;56433.69;;;-142.21;100.00
5053;BME280;2545;50.892;5.740;2023-01-30T07:23:13;56447.41;;;-142.21;100.00
5053;BME280;2545;50.892;5.740;2023-01-30T07:25:38;56445.44;;;-142.21;100.00
5053;BME280;2545;50.892;5.740;2023-01-30T07:28:04;56459.19;;;-142.21;100.00
5053;BME280;2545;50.892;5.740;2023-01-30T07:30:31;56461.13;;;-142.21;100.00
5053;BME280;2545;50.892;5.740;2023-01-30T07:32:58;56437.59;;;-142.21;100.00
5053;BME280;2545;50.892;5.740;2023-01-30T07:35:26;56414.06;;;-142.21;100.00
5053;BME280;2545;50.892;5.740;2023-01-30T07:37:52;56449.38;;;-142.21;100.00
5053;BME280;2545;50.892;5.740;2023-01-30T07:40:19;56441.53;;;-142.21;100.00
5053;BME280;2545;50.892;5.740;2023-01-30T07:42:55;56449.38;;;-142.21;100.00
5053;BME280;2545;50.892;5.740;2023-01-30T07:45:21;56418.00;;;-142.21;100.00
5053;BME280;2545;50.892;5.740;2023-01-30T07:47:46;56433.69;;;-142.21;100.00
5053;BME280;2545;50.892;5.740;2023-01-30T07:50:11;56410.16;;;-142.21;100.00
5053;BME280;2545;50.892;5.740;2023-01-30T07:52:37;56433.69;;;-142.21;100.00
5053;BME280;2545;50.892;5.740;2023-01-30T07:55:03;56439.56;;;-142.21;100.00
5053;BME280;2545;50.892;5.740;2023-01-30T07:57:29;56457.22;;;-142.21;100.00
5053;BME280;2545;50.892;5.740;2023-01-30T07:59:54;56453.28;;;-142.21;100.00
5053;BME280;2545;50.892;5.740;2023-01-30T08:02:19;56451.34;;;-142.21;100.00
5053;BME280;2545;50.892;5.740;2023-01-30T08:04:45;56412.13;;;-142.21;100.00
5053;BME280;2545;50.892;5.740;2023-01-30T08:07:10;56443.50;;;-142.21;100.00
5053;BME280;2545;50.892;5.740;2023-01-30T08:09:35;56467.03;;;-142.21;100.00
5053;BME280;2545;50.892;5.740;2023-01-30T08:12:01;56443.50;;;-142.21;100.00
5053;BME280;2545;50.892;5.740;2023-01-30T08:14:26;56441.53;;;-142.21;100.00
5053;BME280;2545;50.892;5.740;2023-01-30T08:16:55;56382.69;;;-142.21;100.00
5053;BME280;2545;50.892;5.740;2023-01-30T08:19:20;56449.38;;;-142.21;100.00
5053;BME280;2545;50.892;5.740;2023-01-30T08:21:46;56451.34;;;-142.21;100.00
5053;BME280;2545;50.892;5.740;2023-01-30T08:24:11;56459.19;;;-142.21;100.00
5053;BME280;2545;50.892;5.740;2023-01-30T08:26:36;56447.41;;;-142.21;100.00
5053;BME280;2545;50.892;5.740;2023-01-30T08:29:02;56465.06;;;-142.21;100.00
5053;BME280;2545;50.892;5.740;2023-01-30T08:31:27;56445.44;;;-142.21;100.00
5053;BME280;2545;50.892;5.740;2023-01-30T08:33:52;56461.13;;;-142.21;100.00
5053;BME280;2545;50.892;5.740;2023-01-30T08:36:18;56453.28;;;-142.21;100.00
5053;BME280;2545;50.892;5.740;2023-01-30T08:38:43;56451.34;;;-142.21;100.00
5053;BME280;2545;50.892;5.740;2023-01-30T08:41:08;56414.06;;;-142.21;100.00
5053;BME280;2545;50.892;5.740;2023-01-30T08:43:34;56439.56;;;-142.21;100.00
5053;BME280;2545;50.892;5.740;2023-01-30T08:46:00;56421.91;;;-142.21;100.00
5053;BME280;2545;50.892;5.740;2023-01-30T08:48:25;56425.84;;;-142.21;100.00
5053;BME280;2545;50.892;5.740;2023-01-30T08:50:51;56433.69;;;-142.21;100.00
5053;BME280;2545;50.892;5.740;2023-01-30T08:53:17;56429.75;;;-142.21;100.00
5053;BME280;2545;50.892;5.740;2023-01-30T08:55:49;56394.47;;;-142.21;100.00
5053;BME280;2545;50.892;5.740;2023-01-30T08:58:14;56447.41;;;-142.21;100.00
5053;BME280;2545;50.892;5.740;2023-01-30T09:00:40;56439.56;;;-142.21;100.00
5053;BME280;2545;50.892;5.740;2023-01-30T09:03:08;56435.66;;;-142.21;100.00
5053;BME280;2545;50.892;5.740;2023-01-30T09:05:33;56433.69;;;-142.21;100.00
5053;BME280;2545;50.892;5.740;2023-01-30T09:07:59;56451.34;;;-142.21;100.00
5053;BME280;2545;50.892;5.740;2023-01-30T09:10:24;56421.91;;;-142.21;100.00
5053;BME280;2545;50.892;5.740;2023-01-30T09:12:49;56455.25;;;-142.21;100.00
5053;BME280;2545;50.892;5.740;2023-01-30T09:15:15;56455.25;;;-142.21;100.00
5053;BME280;2545;50.892;5.740;2023-01-30T09:17:40;56441.53;;;-142.21;100.00
5053;BME280;2545;50.892;5.740;2023-01-30T09:20:08;56418.00;;;-142.21;100.00
5053;BME280;2545;50.892;5.740;2023-01-30T09:22:34;56480.75;;;-142.21;100.00
5053;BME280;2545;50.892;5.740;2023-01-30T09:24:59;56455.25;;;-142.21;100.00
5053;BME280;2545;50.892;5.740;2023-01-30T09:27:25;56455.25;;;-142.21;100.00
5053;BME280;2545;50.892;5.740;2023-01-30T09:29:50;56449.38;;;-142.21;100.00
5053;BME280;2545;50.892;5.740;2023-01-30T09:32:15;56400.34;;;-142.21;100.00
5053;BME280;2545;50.892;5.740;2023-01-30T09:34:41;56445.44;;;-142.21;100.00
5053;BME280;2545;50.892;5.740;2023-01-30T09:37:06;56390.53;;;-142.21;100.00
5053;BME280;2545;50.892;5.740;2023-01-30T09:39:32;56482.72;;;-142.21;100.00
5053;BME280;2545;50.892;5.740;2023-01-30T09:50:36;56398.38;;;-142.21;100.00
5053;BME280;2545;50.892;5.740;2023-01-30T09:55:52;56408.19;;;-142.21;100.00
5053;BME280;2545;50.892;5.740;2023-01-30T09:58:22;56421.91;;;-142.21;100.00
5053;BME280;2545;50.892;5.740;2023-01-30T10:00:51;56441.53;;;-142.21;100.00
5053;BME280;2545;50.892;5.740;2023-01-30T10:03:43;56439.56;;;-142.21;100.00
5053;BME280;2545;50.892;5.740;2023-01-30T10:06:13;56410.16;;;-142.21;100.00
5053;BME280;2545;50.892;5.740;2023-01-30T10:16:59;56453.28;;;-142.21;100.00
5053;BME280;2545;50.892;5.740;2023-01-30T10:19:49;56400.34;;;-142.21;100.00
5053;BME280;2545;50.892;5.740;2023-01-30T10:25:00;56406.22;;;-142.21;100.00
5053;BME280;2545;50.892;5.740;2023-01-30T10:27:29;56382.69;;;-142.21;100.00
5053;BME280;2545;50.892;5.740;2023-01-30T10:29:58;56421.91;;;-142.21;100.00
5053;BME280;2545;50.892;5.740;2023-01-30T10:32:38;56418.00;;;-142.21;100.00
5053;BME280;2545;50.892;5.740;2023-01-30T10:35:14;56421.91;;;-142.21;99.44
5053;BME280;2545;50.892;5.740;2023-01-30T10:40:38;56416.03;;;-142.21;100.00
5053;BME280;2545;50.892;5.740;2023-01-30T10:45:49;56406.22;;;-142.21;100.00
5053;BME280;2545;50.892;5.740;2023-01-30T10:48:42;56433.69;;;-142.21;94.89
5053;BME280;2545;50.892;5.740;2023-01-30T10:51:19;56398.38;;;-142.21;93.50
5053;BME280;2545;50.892;5.740;2023-01-30T10:53:57;56431.72;;;-142.21;95.00
5053;BME280;2545;50.892;5.740;2023-01-30T11:02:01;56441.53;;;-142.21;91.08
5053;BME280;2545;50.892;5.740;2023-01-30T11:04:41;56402.31;;;-142.21;92.20
5053;BME280;2545;50.892;5.740;2023-01-30T11:07:08;56421.91;;;-142.21;90.67
5053;BME280;2545;50.892;5.740;2023-01-30T11:09:42;56429.75;;;-142.21;91.26
5053;BME280;2545;50.892;5.740;2023-01-30T11:12:08;56378.78;;;-142.21;88.59
5053;BME280;2545;50.892;5.740;2023-01-30T11:15:00;56406.22;;;-142.21;88.97
5053;BME280;2545;50.892;5.740;2023-01-30T11:17:48;56433.69;;;-142.21;86.52
5053;BME280;2545;50.892;5.740;2023-01-30T11:20:16;56402.31;;;-142.21;85.86
5053;BME280;2545;50.892;5.740;2023-01-30T11:22:48;56396.44;;;-142.21;86.64
5053;BME280;2545;50.892;5.740;2023-01-30T11:25:17;56398.38;;;-142.21;85.59
5053;BME280;2545;50.892;5.740;2023-01-30T11:27:43;56398.38;;;-142.21;84.02
5053;BME280;2545;50.892;5.740;2023-01-30T11:30:19;56421.91;;;-142.21;84.85
5053;BME280;2545;50.892;5.740;2023-01-30T11:32:47;56390.53;;;-142.21;82.70
5053;BME280;2545;50.892;5.740;2023-01-30T11:37:40;56376.81;;;-142.21;82.67
5053;BME280;2545;50.892;5.740;2023-01-30T11:40:27;56394.47;;;-142.21;83.79
5053;BME280;2545;50.892;5.740;2023-01-30T11:43:11;56423.88;;;-142.21;82.82
5053;BME280;2545;50.892;5.740;2023-01-30T11:45:39;56398.38;;;-142.21;80.76
5053;BME280;2545;50.892;5.740;2023-01-30T11:48:26;56400.34;;;-142.21;80.30
5053;BME280;2545;50.892;5.740;2023-01-30T11:51:01;56394.47;;;-142.21;80.35
5053;BME280;2545;50.892;5.740;2023-01-30T11:55:58;56423.88;;;-142.21;82.15
5053;BME280;2545;50.892;5.740;2023-01-30T11:58:29;56437.59;;;-142.21;79.66
5053;BME280;2545;50.892;5.740;2023-01-30T12:00:54;56421.91;;;-142.21;80.53
5053;BME280;2545;50.892;5.740;2023-01-30T12:03:22;56374.84;;;-142.21;81.70
5053;BME280;2545;50.892;5.740;2023-01-30T12:05:50;56433.69;;;-142.21;79.98
5053;BME280;2545;50.892;5.740;2023-01-30T12:10:45;56402.31;;;-142.21;80.71
5053;BME280;2545;50.892;5.740;2023-01-30T12:13:34;56445.44;;;-142.21;80.60
5053;BME280;2545;50.892;5.740;2023-01-30T12:16:27;56365.06;;;-142.21;81.51
5053;BME280;2545;50.892;5.740;2023-01-30T12:22:10;56414.06;;;-142.21;79.81
5053;BME280;2545;50.892;5.740;2023-01-30T12:24:45;56408.19;;;-142.21;80.86
5053;BME280;2545;50.892;5.740;2023-01-30T12:27:24;56412.13;;;-142.21;79.80
5053;BME280;2545;50.892;5.740;2023-01-30T12:32:20;56445.44;;;-142.21;79.11
5053;BME280;2545;50.892;5.740;2023-01-30T12:34:47;56367.00;;;-142.21;77.90
5053;BME280;2545;50.892;5.740;2023-01-30T12:37:39;56367.00;;;-142.21;75.73
5053;BME280;2545;50.892;5.740;2023-01-30T12:40:31;56396.44;;;-142.21;76.74
5053;BME280;2545;50.892;5.740;2023-01-30T12:45:33;56367.00;;;-142.21;76.24
5053;BME280;2545;50.892;5.740;2023-01-30T12:48:23;56378.78;;;-142.21;77.30
5053;BME280;2545;50.892;5.740;2023-01-30T12:51:05;56412.13;;;-142.21;75.62
5053;BME280;2545;50.892;5.740;2023-01-30T13:05:46;56388.59;;;-142.21;74.13
5053;BME280;2545;50.892;5.740;2023-01-30T13:11:25;56402.31;;;-142.21;73.06
5053;BME280;2545;50.892;5.740;2023-01-30T13:17:40;56390.53;;;-142.21;72.11
5053;BME280;2545;50.892;5.740;2023-01-30T13:20:18;56394.47;;;-142.21;72.21
5053;BME280;2545;50.892;5.740;2023-01-30T13:22:50;56390.53;;;-142.21;72.06
5053;BME280;2545;50.892;5.740;2023-01-30T13:27:53;56390.53;;;-142.21;70.77
5053;BME280;2545;50.892;5.740;2023-01-30T13:30:19;56410.16;;;-142.21;71.58
5053;BME280;2545;50.892;5.740;2023-01-30T13:32:50;56412.13;;;-142.21;71.53
5053;BME280;2545;50.892;5.740;2023-01-30T13:35:22;56408.19;;;-142.21;71.64
5053;BME280;2545;50.892;5.740;2023-01-30T13:37:50;56388.59;;;-142.21;70.27
5053;BME280;2545;50.892;5.740;2023-01-30T13:40:24;56412.13;;;-142.21;67.89
5053;BME280;2545;50.892;5.740;2023-01-30T13:42:52;56418.00;;;-142.21;68.15
5053;BME280;2545;50.892;5.740;2023-01-30T13:45:21;56382.69;;;-142.21;68.58
5053;BME280;2545;50.892;5.740;2023-01-30T13:59:00;56396.44;;;-142.21;66.20
5053;BME280;2545;50.892;5.740;2023-01-30T14:07:30;56394.47;;;-142.21;66.18
5053;BME280;2545;50.892;5.740;2023-01-30T14:10:12;56370.94;;;-142.21;65.51
5053;BME280;2545;50.892;5.740;2023-01-30T14:12:50;56382.69;;;-142.21;65.91
5053;BME280;2545;50.892;5.740;2023-01-30T14:20:24;56402.31;;;-142.21;66.64
5053;BME280;2545;50.892;5.740;2023-01-30T14:23:33;56404.28;;;-142.21;67.53
5053;BME280;2545;50.892;5.740;2023-01-30T14:25:45;56384.66;;;-142.21;68.23
5053;BME280;2545;50.892;5.740;2023-01-30T14:38:25;56384.66;;;-142.21;68.54
5053;BME280;2545;50.892;5.740;2023-01-30T14:43:36;56374.84;;;-142.21;67.50
5053;BME280;2545;50.892;5.740;2023-01-30T14:46:03;56372.91;;;-142.21;67.94
5053;BME280;2545;50.892;5.740;2023-01-30T14:59:06;56410.16;;;-142.21;66.60
5053;BME280;2545;50.892;5.740;2023-01-30T15:06:59;56382.69;;;-142.21;64.61
5053;BME280;2545;50.892;5.740;2023-01-30T15:09:28;56363.09;;;-142.21;65.02
5053;BME280;2545;50.892;5.740;2023-01-30T15:12:21;56367.00;;;-142.21;63.33
5053;BME280;2545;50.892;5.740;2023-01-30T15:15:05;56398.38;;;-142.21;63.87
5053;BME280;2545;50.892;5.740;2023-01-30T15:20:34;56394.47;;;-142.21;63.99
5053;BME280;2545;50.892;5.740;2023-01-30T15:23:27;56398.38;;;-142.21;63.62
5053;BME280;2545;50.892;5.740;2023-01-30T15:29:08;56392.50;;;-142.21;64.33
5053;BME280;2545;50.892;5.740;2023-01-30T15:31:52;56359.16;;;-142.21;64.38
5053;BME280;2545;50.892;5.740;2023-01-30T15:34:19;56402.31;;;-142.21;64.74
5053;BME280;2545;50.892;5.740;2023-01-30T15:36:44;56370.94;;;-142.21;64.70
5053;BME280;2545;50.892;5.740;2023-01-30T15:39:21;56359.16;;;-142.21;65.58
5053;BME280;2545;50.892;5.740;2023-01-30T15:41:48;56410.16;;;-142.21;65.82
5053;BME280;2545;50.892;5.740;2023-01-30T15:44:35;56380.75;;;-142.21;66.65
5053;BME280;2545;50.892;5.740;2023-01-30T15:47:40;56353.28;;;-142.21;66.94